Naples, ID

6:19 PM PDT on September 17, 2014 (GMT -0700)
Deer Park | Change Station
CLOSE
Current Station
Airport
Location: Deer Park,
Elevation: 2205 ft
Nearby Weather Stations

Elev 2205 ft 47.97 °N, 117.42 °W | Updated 26 minutes ago

Clear
Clear
81 °F
Feels Like 81 °F
N
4
Wind Variable Wind from NNE

Today
High -- | Low -- °F
--% Chance of Precip.
Yesterday
High -- | Low -- °F
Precip. -- in
6:24 AM 6:53 PM
Waning Crescent, 31% visible
Pressure 29.68 in
Visibility 10.0 miles
Clouds Clear
Dew Point 42 °F
Humidity 25%
Rainfall 0.00 in
Snow Depth 0 in , 1 in , 0 in
UV 0 out of 12
Pollen 6.90 out of 12
Air Quality Not available.
Flu Activity Not available.
METAR KDEW 180053Z AUTO 02003KT 10SM CLR 27/06 A2971 RMK AO2 SLP050 T02720056

More Conditions Fewer Conditions

Pressure 29.68 in
Visibility 10.0 miles
Clouds Clear
Dew Point 42 °F
Humidity 25%
Rainfall 0.00 in
Snow Depth 0 in , 1 in , 0 in
UV 0 out of 12
Pollen 6.90 out of 12
Air Quality Not available.
Flu Activity Not available.
METAR KDEW 180053Z AUTO 02003KT 10SM CLR 27/06 A2971 RMK AO2 SLP050 T02720056

More Conditions Fewer Conditions

10-Day Weather Forecast

Almanac

Astronomy

Sep. 17, 2014 Rise Set
Actual Time 6:24 AM PDT 6:53 PM PDT
Civil Twilight 5:53 AM PDT 7:24 PM PDT
Nautical Twilight 5:15 AM PDT 8:02 PM PDT
Astronomical Twilight 4:36 AM PDT 8:41 PM PDT
Moon 12:07 AM PDT (9/17) 3:26 PM PDT (9/17)
Length of Visible Light 13h 31m
Length of Day
12h 28m
Tomorrow will be 3m 31s shorter.
Waning Crescent, 31% of the Moon is Illuminated
Today
Waning Crescent
Sep 24
New
Oct 1
First Quarter
Oct 8
Full
Oct 15
Last Quarter

Today's Extremes

State Highs State Lows

Community

WunderPhotos

Upload Photos

1,754,244 photos uploaded!

Nearby

Snow Depth

Station Depth Elevation
Sunset 0 in 5540 ft
Bear Mountain 1 in 5400 ft
Somsen Ranch 0 in 6800 ft
Dollarhide Summit 0 in 8420 ft
Sheep Mountain 0 in 6570 ft

Earthquake Activity

City Distance Mag. Time & Date
No recent earthquake activity has been reported nearby.
Minimum magnitude displayed is 2.5.

Coastal Water Temperatures

Place Temperature
No Stations Reporting

Nearby Weather Stations